createdAt,value
2023-05-05T00:02:25.000Z,5.01
2023-05-05T00:07:25.000Z,4.87
2023-05-05T00:12:26.000Z,5.29
2023-05-05T00:17:25.000Z,4.82
2023-05-05T00:22:25.000Z,4.58
2023-05-05T00:27:25.000Z,4.74
2023-05-05T00:32:25.000Z,4.68
2023-05-05T00:37:25.000Z,4.73
2023-05-05T00:42:25.000Z,4.76
2023-05-05T00:47:25.000Z,4.71
2023-05-05T00:52:25.000Z,4.77
2023-05-05T00:57:25.000Z,4.86
2023-05-05T01:02:25.000Z,5.67
2023-05-05T01:07:26.000Z,5.16
2023-05-05T01:12:25.000Z,4.63
2023-05-05T01:17:25.000Z,4.81
2023-05-05T01:22:26.000Z,4.61
2023-05-05T01:27:26.000Z,4.51
2023-05-05T01:32:25.000Z,4.45
2023-05-05T01:37:25.000Z,4.71
2023-05-05T01:42:25.000Z,4.68
2023-05-05T01:47:25.000Z,5.02
2023-05-05T01:52:26.000Z,6.45
2023-05-05T01:57:26.000Z,4.51
2023-05-05T02:02:25.000Z,4.46
2023-05-05T02:07:25.000Z,4.67
2023-05-05T02:12:25.000Z,4.48
2023-05-05T02:17:26.000Z,4.52
2023-05-05T02:22:25.000Z,4.51
2023-05-05T02:27:26.000Z,4.08
2023-05-05T02:32:25.000Z,4.14
2023-05-05T02:37:25.000Z,4.47
2023-05-05T02:42:25.000Z,5.68
2023-05-05T02:47:25.000Z,5.33
2023-05-05T02:52:25.000Z,5.36
2023-05-05T02:57:26.000Z,4.92
2023-05-05T03:02:25.000Z,4.75
2023-05-05T03:07:25.000Z,4.47
2023-05-05T03:12:26.000Z,4.39
2023-05-05T03:17:25.000Z,4.36
2023-05-05T03:22:26.000Z,4.35
2023-05-05T03:27:26.000Z,4.5
2023-05-05T03:32:26.000Z,4.22
2023-05-05T03:37:25.000Z,4.08
2023-05-05T03:42:25.000Z,4
2023-05-05T03:47:26.000Z,3.96
2023-05-05T03:52:25.000Z,4
2023-05-05T03:57:26.000Z,4.19
2023-05-05T04:02:26.000Z,5.07
2023-05-05T04:07:25.000Z,4.09
2023-05-05T04:12:25.000Z,4.47
2023-05-05T04:17:25.000Z,4.91
2023-05-05T04:22:26.000Z,5.43
2023-05-05T04:27:25.000Z,5.13
2023-05-05T04:32:26.000Z,4.56
2023-05-05T04:37:26.000Z,4.02
2023-05-05T04:42:25.000Z,4.22
2023-05-05T04:47:25.000Z,3.94
2023-05-05T04:52:25.000Z,3.94
2023-05-05T04:57:25.000Z,3.64
2023-05-05T05:02:26.000Z,3.45
2023-05-05T05:07:25.000Z,3.07
2023-05-05T05:12:25.000Z,3.38
2023-05-05T05:17:26.000Z,3.48
2023-05-05T05:22:25.000Z,3.41
2023-05-05T05:27:25.000Z,2.99
2023-05-05T05:32:25.000Z,3.05
2023-05-05T05:37:26.000Z,2.82
2023-05-05T05:42:26.000Z,2.92
2023-05-05T05:47:25.000Z,3.1
2023-05-05T05:52:25.000Z,2.8
2023-05-05T05:57:26.000Z,2.82
2023-05-05T06:02:26.000Z,2.8
2023-05-05T06:07:25.000Z,2.84
2023-05-05T06:12:26.000Z,2.9
2023-05-05T06:17:25.000Z,2.82
2023-05-05T06:22:26.000Z,2.71
2023-05-05T06:27:25.000Z,3.08
2023-05-05T06:32:25.000Z,2.76
2023-05-05T06:37:26.000Z,2.94
2023-05-05T06:42:25.000Z,2.7
2023-05-05T06:47:25.000Z,2.55
2023-05-05T06:52:26.000Z,2.48
2023-05-05T06:57:25.000Z,2.58
2023-05-05T07:02:26.000Z,2.78
2023-05-05T07:07:25.000Z,2.66
2023-05-05T07:12:26.000Z,2.92
2023-05-05T07:17:26.000Z,3.04
2023-05-05T07:22:25.000Z,3.04
2023-05-05T07:27:25.000Z,3.33
2023-05-05T07:32:25.000Z,3.09
2023-05-05T07:37:25.000Z,3.18
2023-05-05T07:42:25.000Z,3.09
2023-05-05T07:47:26.000Z,2.89
2023-05-05T07:52:26.000Z,3.09
2023-05-05T07:57:25.000Z,3.31
2023-05-05T08:02:25.000Z,3.01
2023-05-05T08:07:25.000Z,2.85
2023-05-05T08:12:25.000Z,2.73
2023-05-05T08:17:25.000Z,2.56
2023-05-05T08:22:25.000Z,2.73
2023-05-05T08:27:25.000Z,2.73
2023-05-05T08:32:25.000Z,3.25
2023-05-05T08:37:25.000Z,2.81
2023-05-05T08:42:25.000Z,2.72
2023-05-05T08:47:25.000Z,2.82
2023-05-05T08:52:25.000Z,2.76
2023-05-05T08:57:24.000Z,2.7
2023-05-05T09:02:25.000Z,2.83
2023-05-05T09:07:25.000Z,2.86
2023-05-05T09:12:25.000Z,2.49
2023-05-05T09:17:25.000Z,2.5
2023-05-05T09:22:25.000Z,2.65
2023-05-05T09:27:25.000Z,3.2
2023-05-05T09:32:25.000Z,2.92
2023-05-05T09:37:25.000Z,2.76
2023-05-05T09:42:25.000Z,2.82
2023-05-05T09:47:24.000Z,2.77
2023-05-05T09:52:26.000Z,2.77
2023-05-05T09:57:25.000Z,2.94
2023-05-05T10:02:25.000Z,2.74
2023-05-05T10:07:26.000Z,2.93
2023-05-05T10:12:26.000Z,2.72
2023-05-05T10:17:25.000Z,3.1
2023-05-05T10:22:26.000Z,3.14
2023-05-05T10:27:25.000Z,3.03
2023-05-05T10:32:25.000Z,2.88
2023-05-05T10:37:25.000Z,2.98
2023-05-05T10:42:25.000Z,2.72
2023-05-05T10:47:24.000Z,2.71
2023-05-05T10:52:25.000Z,2.72
2023-05-05T10:57:25.000Z,2.69
2023-05-05T11:02:26.000Z,2.63
2023-05-05T11:07:25.000Z,2.82
2023-05-05T11:12:26.000Z,2.99
2023-05-05T11:17:25.000Z,3.19
2023-05-05T11:22:26.000Z,3.05
2023-05-05T11:27:25.000Z,2.9
2023-05-05T11:32:25.000Z,2.79
2023-05-05T11:37:26.000Z,3.12
2023-05-05T11:42:25.000Z,2.96
2023-05-05T11:47:25.000Z,2.98
2023-05-05T11:52:25.000Z,2.96
2023-05-05T11:57:24.000Z,3.06
2023-05-05T12:02:25.000Z,3
2023-05-05T12:07:26.000Z,2.73
2023-05-05T12:12:25.000Z,3.02
2023-05-05T12:17:25.000Z,2.88
2023-05-05T12:22:25.000Z,2.85
2023-05-05T12:27:25.000Z,2.55
2023-05-05T12:32:25.000Z,2.58
2023-05-05T12:37:25.000Z,2.66
2023-05-05T12:42:26.000Z,2.58
2023-05-05T12:47:25.000Z,2.53
2023-05-05T12:52:25.000Z,2.68
2023-05-05T12:57:25.000Z,2.66
2023-05-05T13:02:26.000Z,2.71
2023-05-05T13:07:26.000Z,2.84
2023-05-05T13:12:26.000Z,2.71
2023-05-05T13:17:25.000Z,2.79
2023-05-05T13:22:25.000Z,2.82
2023-05-05T13:27:25.000Z,2.55
2023-05-05T13:32:26.000Z,2.46
2023-05-05T13:37:25.000Z,2.41
2023-05-05T13:42:25.000Z,2.29
2023-05-05T13:47:25.000Z,2.43
2023-05-05T13:52:25.000Z,2.46
2023-05-05T13:57:25.000Z,2.77
2023-05-05T14:02:25.000Z,2.74
2023-05-05T14:07:26.000Z,3.57
2023-05-05T14:12:25.000Z,3.56
2023-05-05T14:17:25.000Z,3.24
2023-05-05T14:22:25.000Z,2.83
2023-05-05T14:27:25.000Z,3.39
2023-05-05T14:32:25.000Z,3.63
2023-05-05T14:37:25.000Z,2.93
2023-05-05T14:42:26.000Z,2.91
2023-05-05T14:47:25.000Z,2.95
2023-05-05T14:52:26.000Z,3
2023-05-05T14:57:25.000Z,2.91
2023-05-05T15:02:25.000Z,3.19
2023-05-05T15:07:26.000Z,3.08
2023-05-05T15:12:25.000Z,3.23
2023-05-05T15:17:25.000Z,3.16
2023-05-05T15:22:26.000Z,2.9
2023-05-05T15:27:25.000Z,3.49
2023-05-05T15:32:26.000Z,2.84
2023-05-05T15:37:25.000Z,2.97
2023-05-05T15:42:25.000Z,3.23
2023-05-05T15:47:25.000Z,2.94
2023-05-05T15:52:25.000Z,2.84
2023-05-05T15:57:25.000Z,3.2
2023-05-05T16:02:25.000Z,3.16
2023-05-05T16:07:25.000Z,3.07
2023-05-05T16:12:25.000Z,4.7
2023-05-05T16:17:26.000Z,4.06
2023-05-05T16:22:25.000Z,3.73
2023-05-05T16:27:25.000Z,3.3
2023-05-05T16:32:26.000Z,3.48
2023-05-05T16:37:26.000Z,4.07
2023-05-05T16:42:25.000Z,3.83
2023-05-05T16:47:25.000Z,3.89
2023-05-05T16:52:26.000Z,3.22
2023-05-05T16:57:26.000Z,3.44
2023-05-05T17:02:25.000Z,4.14
2023-05-05T17:07:25.000Z,4.06
2023-05-05T17:12:26.000Z,5.04
2023-05-05T17:17:26.000Z,4.6
2023-05-05T17:22:25.000Z,4.54
2023-05-05T17:27:25.000Z,5.01
2023-05-05T17:32:25.000Z,5.11
2023-05-05T17:37:25.000Z,4.69
2023-05-05T17:42:26.000Z,9.16
2023-05-05T17:47:25.000Z,20.37
2023-05-05T17:52:25.000Z,23.18
2023-05-05T17:57:25.000Z,27.46
2023-05-05T18:02:25.000Z,59.57
2023-05-05T18:07:25.000Z,27.55
2023-05-05T18:12:25.000Z,20.67
2023-05-05T18:17:26.000Z,12.12
2023-05-05T18:22:25.000Z,5.94
2023-05-05T18:27:25.000Z,6.26
2023-05-05T18:32:25.000Z,5.63
2023-05-05T18:37:26.000Z,4.29
2023-05-05T18:42:25.000Z,4.26
2023-05-05T18:47:25.000Z,4.26
2023-05-05T18:52:25.000Z,4.82
2023-05-05T18:57:26.000Z,4.49
2023-05-05T19:02:25.000Z,4.49
2023-05-05T19:07:25.000Z,4.64
2023-05-05T19:12:25.000Z,4.56
2023-05-05T19:17:25.000Z,4.31
2023-05-05T19:22:25.000Z,4.43
2023-05-05T19:27:25.000Z,4.3
2023-05-05T19:32:25.000Z,4.1
2023-05-05T19:37:25.000Z,4.46
2023-05-05T19:42:25.000Z,4.54
2023-05-05T19:47:25.000Z,4.69
2023-05-05T19:52:25.000Z,5.12
2023-05-05T19:57:25.000Z,6.46
2023-05-05T20:02:25.000Z,5.71
2023-05-05T20:07:25.000Z,5.62
2023-05-05T20:12:25.000Z,5.4
2023-05-05T20:17:25.000Z,6.38
2023-05-05T20:22:25.000Z,5.69
2023-05-05T20:27:25.000Z,5.62
2023-05-05T20:32:25.000Z,5.68
2023-05-05T20:37:25.000Z,5.87
2023-05-05T20:42:26.000Z,5.48
2023-05-05T20:47:25.000Z,5.23
2023-05-05T20:52:25.000Z,4.95
2023-05-05T20:57:25.000Z,4.93
2023-05-05T21:02:25.000Z,4.88
2023-05-05T21:07:26.000Z,5.14
2023-05-05T21:12:25.000Z,5.19
2023-05-05T21:17:25.000Z,5.09
2023-05-05T21:22:25.000Z,4.59
2023-05-05T21:27:26.000Z,4.39
2023-05-05T21:32:25.000Z,4.45
2023-05-05T21:37:26.000Z,4.2
2023-05-05T21:42:24.000Z,4.36
2023-05-05T21:47:25.000Z,4.33
2023-05-05T21:52:25.000Z,4.48
2023-05-05T21:57:25.000Z,4.37
2023-05-05T22:02:25.000Z,4.35
2023-05-05T22:07:25.000Z,4.82
2023-05-05T22:12:25.000Z,4.87
2023-05-05T22:17:25.000Z,4.48
2023-05-05T22:22:25.000Z,4.36
2023-05-05T22:27:25.000Z,4.11
2023-05-05T22:32:26.000Z,4.03
2023-05-05T22:37:26.000Z,4.03
2023-05-05T22:42:25.000Z,4.89
2023-05-05T22:47:25.000Z,4.56
2023-05-05T22:52:25.000Z,3.78
2023-05-05T22:57:25.000Z,3.78
2023-05-05T23:02:25.000Z,3.58
2023-05-05T23:07:25.000Z,3.64
2023-05-05T23:12:25.000Z,3.47
2023-05-05T23:17:25.000Z,3.89
2023-05-05T23:22:25.000Z,3.81
2023-05-05T23:27:25.000Z,3.19
2023-05-05T23:32:25.000Z,2.94
2023-05-05T23:37:25.000Z,2.88
2023-05-05T23:42:25.000Z,2.78
2023-05-05T23:47:25.000Z,2.85
2023-05-05T23:52:26.000Z,2.86
2023-05-05T23:57:25.000Z,2.95
